Terminal Aerodrome Forecast
Issued by NWS Blacksburg, VA

Current Version | Previous Version | Text Only | Print | Product List | Glossary Off
Versions: 1 2 3 4 5 6 7 8 9 10 11 12 13 14 15 16 17

000
FTUS41 KRNK 231731
TAFBLF
TAF
KBLF 231731Z 2318/2418 08007KT 5SM RA OVC015
      TEMPO 2318/2319 OVC008
     FM240000 11009KT 3SM RA OVC006
     FM240900 09010KT P6SM VCSH OVC003
     FM241200 09009KT 3SM -SHRA OVC008
     FM241600 10010KT P6SM VCSH OVC010=

USA.gov is the U.S. government's official web portal to all federal, state and local government web resources and services.